Time;durP1;ratioP1;P1;durP2;ratioP2;P2;SDS_P1;SDS_P2;PMS_P1;PMS_P2;Temp;Humidity;BMP_temperature;BMP_pressure;BME280_temperature;BME280_humidity;BME280_pressure;Samples;Min_cycle;Max_cycle;Signal;HPM_P1;HPM_P2
2023/06/17 05:50:33;;;;;;;20.17;9.93;;;;;;;;;;10332330;28;20381;-82
2023/06/17 05:55:34;;;;;;;36.33;11.60;;;;;;;;;;10330146;28;20035;-83
2023/06/17 06:00:35;;;;;;;9.82;7.32;;;;;;;;;;10329794;28;20032;-82
2023/06/17 06:05:36;;;;;;;7.20;4.30;;;;;;;;;;10329532;28;20066;-83
2023/06/17 06:10:37;;;;;;;8.95;4.50;;;;;;;;;;10329885;28;20049;-83
2023/06/17 06:15:38;;;;;;;7.90;4.22;;;;;;;;;;10330298;28;20054;-84
2023/06/17 06:20:39;;;;;;;7.50;4.57;;;;;;;;;;10333296;28;20019;-83
2023/06/17 06:25:41;;;;;;;5.88;5.05;;;;;;;;;;10331445;28;20038;-83
2023/06/17 06:30:42;;;;;;;9.68;6.43;;;;;;;;;;10329483;28;20471;-83
2023/06/17 06:35:43;;;;;;;9.55;6.93;;;;;;;;;;10331783;28;20022;-82
2023/06/17 06:40:44;;;;;;;8.32;7.53;;;;;;;;;;10330274;28;20083;-82
2023/06/17 06:45:46;;;;;;;7.10;4.22;;;;;;;;;;10330721;28;20503;-83
2023/06/17 06:50:47;;;;;;;6.35;5.18;;;;;;;;;;10331571;28;20034;-82
2023/06/17 06:55:48;;;;;;;4.38;3.92;;;;;;;;;;10329962;28;20500;-82
2023/06/17 07:00:49;;;;;;;6.30;5.70;;;;;;;;;;10312267;28;20051;-82
2023/06/17 07:05:50;;;;;;;5.38;3.88;;;;;;;;;;10304786;28;20176;-80
2023/06/17 07:10:51;;;;;;;6.85;4.30;;;;;;;;;;10302188;28;20051;-80
2023/06/17 07:15:52;;;;;;;5.78;4.45;;;;;;;;;;10307712;28;20061;-79
2023/06/17 07:20:53;;;;;;;5.47;3.80;;;;;;;;;;10310221;28;20023;-79
2023/06/17 07:25:55;;;;;;;5.70;4.75;;;;;;;;;;10305307;28;20499;-78
2023/06/17 07:30:56;;;;;;;7.13;4.10;;;;;;;;;;10304151;28;20023;-79
2023/06/17 07:35:57;;;;;;;6.25;4.72;;;;;;;;;;10308103;28;20027;-79
2023/06/17 07:40:58;;;;;;;5.32;4.78;;;;;;;;;;10307736;28;20451;-80
2023/06/17 07:45:59;;;;;;;8.20;6.05;;;;;;;;;;10306322;28;20173;-80
2023/06/17 07:51:01;;;;;;;8.73;5.53;;;;;;;;;;10313586;28;20019;-81
2023/06/17 07:56:02;;;;;;;5.65;4.95;;;;;;;;;;10310465;28;20030;-80
2023/06/17 08:01:03;;;;;;;6.32;5.57;;;;;;;;;;10311239;28;20026;-82
2023/06/17 08:06:04;;;;;;;6.50;5.00;;;;;;;;;;10321760;28;20046;-79
2023/06/17 08:11:05;;;;;;;7.05;5.70;;;;;;;;;;10322229;28;20065;-79
2023/06/17 08:16:06;;;;;;;5.95;5.40;;;;;;;;;;10309049;28;20082;-80
2023/06/17 08:21:08;;;;;;;7.55;5.80;;;;;;;;;;10307549;28;20019;-80
2023/06/17 08:26:09;;;;;;;6.97;5.53;;;;;;;;;;10301643;28;20458;-80
2023/06/17 08:31:10;;;;;;;7.07;4.90;;;;;;;;;;10302131;28;20037;-80
2023/06/17 08:36:11;;;;;;;7.80;7.00;;;;;;;;;;10302191;28;20031;-80
2023/06/17 08:41:12;;;;;;;5.93;4.97;;;;;;;;;;10301828;28;20088;-79
2023/06/17 08:46:14;;;;;;;5.88;4.90;;;;;;;;;;10307713;28;20039;-79
2023/06/17 08:51:15;;;;;;;5.97;4.85;;;;;;;;;;10306869;28;20122;-79
2023/06/17 08:56:16;;;;;;;6.00;4.75;;;;;;;;;;10308363;28;20038;-80
2023/06/17 09:01:17;;;;;;;5.60;5.10;;;;;;;;;;10301863;28;20061;-79
2023/06/17 09:06:27;;;;;;;5.38;4.80;;;;;;;;;;10300429;28;20027;-80
2023/06/17 09:11:28;;;;;;;;;;;;;;;;;;10301915;28;20116;-81
2023/06/17 09:16:30;;;;;;;6.15;5.53;;;;;;;;;;10303130;28;19943;-81
2023/06/17 09:21:31;;;;;;;5.47;4.70;;;;;;;;;;10303928;28;20447;-80
2023/06/17 09:26:33;;;;;;;6.10;4.50;;;;;;;;;;10303435;28;20066;-80
2023/06/17 09:31:46;;;;;;;5.38;4.50;;;;;;;;;;10300634;28;20038;-80
2023/06/17 09:36:53;;;;;;;5.43;4.10;;;;;;;;;;10299881;28;20069;-80
2023/06/17 09:41:56;;;;;;;5.60;4.38;;;;;;;;;;10298610;28;20027;-80
2023/06/17 09:47:04;;;;;;;4.90;4.20;;;;;;;;;;10300875;28;20485;-81
2023/06/17 09:52:08;;;;;;;4.60;4.10;;;;;;;;;;10300161;28;20023;-80
2023/06/17 09:57:09;;;;;;;7.88;6.47;;;;;;;;;;10299593;28;20084;-79
2023/06/17 10:02:10;;;;;;;8.55;5.97;;;;;;;;;;10299555;28;20384;-81
2023/06/17 10:07:11;;;;;;;5.47;4.97;;;;;;;;;;10297371;28;20118;-82
2023/06/17 10:12:13;;;;;;;8.05;7.28;;;;;;;;;;10299665;28;20443;-79
2023/06/17 10:17:14;;;;;;;4.18;3.78;;;;;;;;;;10300907;28;20042;-79
2023/06/17 10:22:16;;;;;;;6.28;5.38;;;;;;;;;;10300565;28;20112;-79
2023/06/17 10:27:20;;;;;;;5.28;4.22;;;;;;;;;;10298060;28;20118;-79
2023/06/17 10:32:24;;;;;;;4.20;3.28;;;;;;;;;;10300587;28;20125;-80
2023/06/17 10:37:28;;;;;;;4.00;3.60;;;;;;;;;;10304841;28;20519;-79
2023/06/17 10:42:29;;;;;;;4.63;3.45;;;;;;;;;;10307331;28;20460;-81
2023/06/17 10:47:30;;;;;;;4.93;4.43;;;;;;;;;;10300141;28;20039;-77
2023/06/17 10:52:31;;;;;;;5.32;3.45;;;;;;;;;;10297346;28;20058;-77
2023/06/17 10:57:33;;;;;;;4.20;3.30;;;;;;;;;;10297777;28;20027;-77
2023/06/17 11:02:36;;;;;;;4.30;3.60;;;;;;;;;;10304943;28;20019;-80
2023/06/17 11:07:37;;;;;;;4.18;3.60;;;;;;;;;;10305392;28;20027;-81
2023/06/17 11:12:39;;;;;;;5.38;4.18;;;;;;;;;;10321965;28;20015;-79
2023/06/17 11:17:40;;;;;;;5.30;3.58;;;;;;;;;;10323824;28;20035;-80
2023/06/17 11:22:41;;;;;;;4.22;3.38;;;;;;;;;;10300756;28;20026;-80
2023/06/17 11:27:46;;;;;;;4.40;3.92;;;;;;;;;;10300413;28;20027;-80
2023/06/17 11:32:48;;;;;;;4.00;3.58;;;;;;;;;;10301059;28;20041;-80
2023/06/17 11:37:49;;;;;;;3.83;3.40;;;;;;;;;;10300332;28;20031;-80
2023/06/17 11:42:52;;;;;;;4.30;3.90;;;;;;;;;;10301937;28;20027;-80
2023/06/17 11:47:53;;;;;;;4.97;3.60;;;;;;;;;;10299397;28;20038;-80
2023/06/17 11:52:56;;;;;;;6.70;4.13;;;;;;;;;;10300127;28;20125;-80
2023/06/17 11:57:57;;;;;;;5.53;4.13;;;;;;;;;;10303366;28;20029;-80
2023/06/17 12:02:58;;;;;;;5.53;3.70;;;;;;;;;;10302174;28;20019;-79
2023/06/17 12:08:00;;;;;;;5.60;3.58;;;;;;;;;;10300080;28;20084;-80
2023/06/17 12:13:01;;;;;;;4.55;3.58;;;;;;;;;;10300003;28;20031;-80
2023/06/17 12:18:10;;;;;;;3.90;3.50;;;;;;;;;;10300736;28;20049;-80
2023/06/17 12:23:11;;;;;;;4.00;3.60;;;;;;;;;;10299930;28;20107;-80
2023/06/17 12:28:13;;;;;;;4.82;3.70;;;;;;;;;;10313676;28;20038;-80
2023/06/17 12:33:14;;;;;;;7.20;3.88;;;;;;;;;;10331898;28;20014;-80
2023/06/17 12:38:15;;;;;;;5.80;3.50;;;;;;;;;;10301111;28;20492;-80
2023/06/17 12:43:16;;;;;;;4.50;3.70;;;;;;;;;;10297518;28;20093;-80
2023/06/17 12:48:19;;;;;;;153.40;139.55;;;;;;;;;;10298923;28;20062;-79
2023/06/17 12:53:20;;;;;;;5.50;5.00;;;;;;;;;;10298415;28;20027;-79
2023/06/17 12:58:22;;;;;;;9.27;4.68;;;;;;;;;;10294979;28;20027;-79
2023/06/17 13:03:23;;;;;;;5.25;4.53;;;;;;;;;;10296091;28;20077;-79
2023/06/17 13:08:28;;;;;;;4.50;3.78;;;;;;;;;;10297665;28;20037;-79
2023/06/17 13:13:31;;;;;;;6.47;4.60;;;;;;;;;;10296563;28;20026;-79
2023/06/17 13:18:32;;;;;;;4.50;4.10;;;;;;;;;;10297153;28;20038;-80
2023/06/17 13:23:34;;;;;;;5.32;4.20;;;;;;;;;;10300824;28;20031;-80
2023/06/17 13:28:36;;;;;;;5.63;4.80;;;;;;;;;;10295881;28;20045;-81
2023/06/17 13:33:37;;;;;;;4.57;3.90;;;;;;;;;;10295970;28;20031;-80
2023/06/17 13:38:39;;;;;;;5.50;4.40;;;;;;;;;;10294903;28;20031;-80
2023/06/17 13:43:41;;;;;;;4.82;4.22;;;;;;;;;;10293602;28;20063;-80
2023/06/17 13:48:42;;;;;;;5.80;4.60;;;;;;;;;;10297852;28;20084;-80
2023/06/17 13:53:43;;;;;;;6.03;5.13;;;;;;;;;;10295111;28;20023;-81
2023/06/17 13:58:45;;;;;;;5.78;4.65;;;;;;;;;;10294671;28;20041;-80
2023/06/17 14:03:47;;;;;;;5.30;4.78;;;;;;;;;;10299232;28;20023;-80
2023/06/17 14:08:48;;;;;;;4.57;4.07;;;;;;;;;;10298497;28;20030;-80
2023/06/17 14:13:49;;;;;;;6.22;4.60;;;;;;;;;;10302569;28;20127;-80
2023/06/17 14:18:52;;;;;;;4.65;4.10;;;;;;;;;;10308653;28;20035;-79
2023/06/17 14:24:07;;;;;;;5.07;4.57;;;;;;;;;;10335414;28;20030;-79
2023/06/17 14:29:09;;;;;;;5.10;4.60;;;;;;;;;;10313279;28;20046;-79
2023/06/17 14:34:10;;;;;;;6.00;4.88;;;;;;;;;;10304333;28;20031;-79
2023/06/17 14:39:11;;;;;;;4.65;4.25;;;;;;;;;;10304393;28;20090;-79
2023/06/17 14:44:12;;;;;;;6.13;5.55;;;;;;;;;;10303115;28;20122;-80
2023/06/17 14:49:13;;;;;;;5.07;4.57;;;;;;;;;;10299636;28;20182;-80
2023/06/17 14:54:14;;;;;;;5.78;4.95;;;;;;;;;;10298630;28;20161;-79
2023/06/17 14:59:15;;;;;;;5.88;4.25;;;;;;;;;;10300466;28;20527;-80
2023/06/17 15:04:16;;;;;;;5.63;4.50;;;;;;;;;;10301683;28;20110;-79
2023/06/17 15:09:29;;;;;;;6.25;5.40;;;;;;;;;;10298204;28;20148;-79
2023/06/17 15:14:32;;;;;;;5.57;4.90;;;;;;;;;;10299033;28;20469;-79
2023/06/17 15:19:35;;;;;;;5.95;4.45;;;;;;;;;;10298908;28;20469;-79
2023/06/17 15:24:36;;;;;;;11.77;10.65;;;;;;;;;;10297940;28;20391;-79
2023/06/17 15:29:37;;;;;;;5.10;4.60;;;;;;;;;;10300742;28;20047;-79
2023/06/17 15:34:38;;;;;;;5.85;4.40;;;;;;;;;;10300477;28;20035;-79
2023/06/17 15:39:41;;;;;;;6.05;4.72;;;;;;;;;;10296912;28;20098;-79
2023/06/17 15:44:42;;;;;;;7.63;4.50;;;;;;;;;;10299216;28;20027;-79
2023/06/17 15:49:43;;;;;;;5.72;5.13;;;;;;;;;;10313236;28;20027;-83
2023/06/17 15:54:44;;;;;;;6.72;5.32;;;;;;;;;;10341104;28;20019;-81
2023/06/17 15:59:46;;;;;;;5.00;4.50;;;;;;;;;;10305218;28;20039;-79
2023/06/17 16:04:53;;;;;;;8.63;7.85;;;;;;;;;;10296461;28;20049;-80
2023/06/17 16:09:54;;;;;;;5.63;4.85;;;;;;;;;;10298732;28;20088;-80
2023/06/17 16:14:55;;;;;;;5.28;4.78;;;;;;;;;;10308008;28;20034;-79
2023/06/17 16:19:57;;;;;;;5.15;4.65;;;;;;;;;;10309061;28;20491;-80
2023/06/17 16:24:58;;;;;;;5.55;5.00;;;;;;;;;;10298729;28;20019;-80
2023/06/17 16:30:00;;;;;;;5.30;4.80;;;;;;;;;;10295074;28;20501;-79
2023/06/17 16:35:01;;;;;;;5.03;4.50;;;;;;;;;;10294851;28;20034;-80
2023/06/17 16:40:03;;;;;;;6.25;4.75;;;;;;;;;;10296167;28;20027;-79
2023/06/17 16:45:10;;;;;;;5.45;4.95;;;;;;;;;;10294749;28;20030;-80
2023/06/17 16:50:11;;;;;;;4.97;4.40;;;;;;;;;;10294020;28;20092;-79
2023/06/17 16:55:14;;;;;;;6.38;5.15;;;;;;;;;;10294763;28;20023;-80
2023/06/17 17:00:18;;;;;;;5.90;5.13;;;;;;;;;;10295150;28;20039;-79
2023/06/17 17:05:19;;;;;;;5.10;4.35;;;;;;;;;;10297410;28;20027;-80
2023/06/17 17:10:23;;;;;;;5.28;4.78;;;;;;;;;;10296320;28;20084;-79
2023/06/17 17:15:24;;;;;;;6.10;4.68;;;;;;;;;;10296888;28;20057;-80
2023/06/17 17:20:35;;;;;;;5.55;4.53;;;;;;;;;;10300127;28;20024;-79
2023/06/17 17:25:37;;;;;;;5.30;4.00;;;;;;;;;;10310596;28;20069;-79
2023/06/17 17:30:38;;;;;;;5.97;4.53;;;;;;;;;;10320672;28;20035;-79
2023/06/17 17:35:39;;;;;;;3.90;3.55;;;;;;;;;;10324459;28;20026;-79
2023/06/17 17:40:40;;;;;;;5.80;5.28;;;;;;;;;;10314728;28;20046;-79
2023/06/17 17:45:41;;;;;;;5.05;4.57;;;;;;;;;;10314742;28;20033;-80
2023/06/17 17:50:42;;;;;;;4.63;4.20;;;;;;;;;;10296329;28;20043;-80
2023/06/17 17:55:43;;;;;;;5.35;4.80;;;;;;;;;;10296842;28;20557;-80
2023/06/17 18:00:44;;;;;;;5.18;4.68;;;;;;;;;;10332708;23;20046;-86
2023/06/17 18:05:45;;;;;;;4.85;4.43;;;;;;;;;;10328851;28;20117;-86
2023/06/17 18:10:46;;;;;;;4.97;4.47;;;;;;;;;;10327110;28;20066;-86
2023/06/17 18:15:48;;;;;;;5.25;4.68;;;;;;;;;;10329635;28;20035;-86
2023/06/17 18:20:55;;;;;;;5.28;4.78;;;;;;;;;;10336599;28;20069;-86
2023/06/17 18:26:34;;;;;;;5.72;4.90;;;;;;;;;;10326825;28;20042;-86
2023/06/17 18:32:10;;;;;;;5.10;4.65;;;;;;;;;;10329228;28;20023;-86
2023/06/17 18:37:50;;;;;;;6.05;4.47;;;;;;;;;;10340358;28;20069;-87
2023/06/17 18:43:20;;;;;;;5.88;5.35;;;;;;;;;;10346073;28;20138;-86
2023/06/17 18:48:31;;;;;;;4.45;3.80;;;;;;;;;;10330178;28;20560;-86
2023/06/17 18:54:09;;;;;;;4.40;4.00;;;;;;;;;;10321161;28;20030;-86
2023/06/17 19:11:05;;;;;;;6.00;4.50;;;;;;;;;;10333244;28;20034;-86
